Aérodrome :
LOGIN :

S'inscrire | Disclaimer

   EN    FR    IT 

 










Légende :    VFR   VFR Marginal   IFR   IFR Intensif   IFR Très Intensif
Visi : 
Plafond : 
>= 8 km
>= 3000ft
5 à 8 km
1000 à 3000 ft
1500m à 5 km
500 à 1000 ft
800 à 1500m
200 à 500 ft
< 800m
< 200 ft
Symboles :   Orages  Brouillard  Fortes neiges  Fortes précipitations  Vent > 20 kt
SIGMETs :   Divers  Orages  Givrage  Turbulence  Onde Orograph.  Cendres Volcan.







- Altitude de l'aérodrome : 46 ft
- Code IATA : SNN


EINN - Shannon

DERNIER METAR :
  • 190430Z 08005KT 9000 BKN006 BKN009 07/06 Q1023 NOSIG

METARs EXPIRÉS :
  • 190400Z 08006KT 9999 BKN008 BKN012 07/07 Q1023 NOSIG
  • 190330Z 11007KT 9000 BKN009 BKN013 07/07 Q1023 NOSIG
  • 190300Z 09004KT 9000 BKN013 BKN045 07/06 Q1024 NOSIG
  • 190230Z 09004KT 9000 SCT042 BKN140 07/06 Q1024 NOSIG
  • 190200Z 11004KT 9000 BKN042 BKN140 08/06 Q1024 NOSIG

TAF TAF EINN
Valide du 19 à 00h jusqu'au 20 à 00h UTC


182300Z 1900/1924 VRB03KT 9999 FEW008 BKN030
PROB30
TEMPO 1900/1903 5000 -RADZ BKN008
BECMG 1903/1906 13008KT 5000 -DZ SCT003 BKN008
TEMPO 1903/1912 3000 -RADZ BKN006
PROB40
TEMPO 1903/1910 2000 RADZ BR BKN003
BECMG 1910/1913 18012KT 9999 SCT012 BKN020
TEMPO 1912/1924 -DZ BKN012
PROB40
TEMPO 1916/1924 4000 -RADZ BKN008
BECMG 1918/1921 21013KT
Pas de NOTAMs connus pour ce terrain.



MET'MAP, la Météo Aéronautique d'un coup d'oeil ! - Copyright ORBIFLY Décembre 2007 - Disclaimer

ORBIFLY MET'MAP TEAM :

Programmation & Développement : Alexandra Zaïnal
Conception & Développement : Baudouin d'Aumeries
Co-Programmation & Développement : Marc-Olivier Méhu
Soutien technique & logistique : Manuel Goepfert

Contact : metmap@orbifly.com




SOURCES & CREDITS :

   NOAA